Time,TemperatureF,DewpointF,PressureIn,WindDirection,WindDirectionDegrees,WindSpeedMPH,WindSpeedGustMPH,Humidity,HourlyPrecipIn,Conditions,Clouds,dailyrainin,SolarRadiationWatts/m^2,SoftwareType,DateUTC
2013-07-13 00:11:00,40.0,38.0,-100.00,ENE,77,1.0,2.0,93,0.00,,,0.00,0.000000,,2013-07-13 07:11:00,
2013-07-13 00:22:00,40.0,38.0,-100.00,ENE,77,1.0,2.0,93,0.00,,,0.00,0.000000,,2013-07-13 07:22:00,
2013-07-13 00:33:00,40.0,38.0,-100.00,ENE,77,1.0,2.0,93,0.00,,,0.00,0.000000,,2013-07-13 07:33:00,
2013-07-13 00:44:00,40.0,38.0,-100.00,ENE,77,1.0,2.0,93,0.00,,,0.00,0.000000,,2013-07-13 07:44:00,
2013-07-13 01:22:00,41.0,40.0,-100.00,ESE,110,1.0,4.0,96,0.00,,,0.00,0.000000,,2013-07-13 08:22:00,
2013-07-13 01:33:00,41.0,40.0,-100.00,ESE,110,1.0,4.0,96,0.00,,,0.00,0.000000,,2013-07-13 08:33:00,
2013-07-13 01:43:00,41.0,40.0,-100.00,ESE,110,1.0,4.0,96,0.00,,,0.00,0.000000,,2013-07-13 08:43:00,
2013-07-13 01:52:00,41.0,40.0,-100.00,ESE,110,1.0,4.0,96,0.00,,,0.00,0.000000,,2013-07-13 08:52:00,
2013-07-13 01:53:00,39.0,38.0,-100.00,SE,125,1.0,3.0,96,0.00,,,0.00,0.000000,,2013-07-13 08:53:00,
2013-07-13 02:22:00,39.0,38.0,-100.00,SE,125,1.0,3.0,96,0.00,,,0.00,0.000000,,2013-07-13 09:22:00,
2013-07-13 02:32:00,39.0,38.0,-100.00,SE,125,1.0,3.0,96,0.00,,,0.00,0.000000,,2013-07-13 09:32:00,
2013-07-13 02:42:00,39.0,38.0,-100.00,SE,125,1.0,3.0,96,0.00,,,0.00,0.000000,,2013-07-13 09:42:00,
2013-07-13 03:22:00,39.0,38.0,-100.00,NE,52,1.0,3.0,97,0.00,,,0.00,0.000000,,2013-07-13 10:22:00,
2013-07-13 03:32:00,39.0,38.0,-100.00,NE,52,1.0,3.0,97,0.00,,,0.00,0.000000,,2013-07-13 10:32:00,
2013-07-13 03:43:00,39.0,38.0,-100.00,NE,52,1.0,3.0,97,0.00,,,0.00,0.000000,,2013-07-13 10:43:00,
2013-07-13 03:52:00,39.0,38.0,-100.00,NE,52,1.0,3.0,97,0.00,,,0.00,0.000000,,2013-07-13 10:52:00,
2013-07-13 04:11:00,41.0,40.0,-100.00,East,82,1.0,4.0,97,0.00,,,0.00,0.000000,,2013-07-13 11:11:00,
2013-07-13 04:22:00,41.0,40.0,-100.00,East,82,1.0,4.0,97,0.00,,,0.00,0.000000,,2013-07-13 11:22:00,
2013-07-13 04:32:00,41.0,40.0,-100.00,East,82,1.0,4.0,97,0.00,,,0.00,0.000000,,2013-07-13 11:32:00,
2013-07-13 04:42:00,41.0,40.0,-100.00,East,82,1.0,4.0,97,0.00,,,0.00,0.000000,,2013-07-13 11:42:00,
2013-07-13 04:52:00,41.0,40.0,-100.00,East,82,1.0,4.0,97,0.00,,,0.00,0.000000,,2013-07-13 11:52:00,
2013-07-13 05:22:00,41.0,40.0,-100.00,NE,45,0.0,2.0,97,0.00,,,0.00,0.000000,,2013-07-13 12:22:00,
2013-07-13 05:32:00,41.0,40.0,-100.00,NE,45,0.0,2.0,97,0.00,,,0.00,0.000000,,2013-07-13 12:32:00,
2013-07-13 05:43:00,41.0,40.0,-100.00,NE,45,0.0,2.0,97,0.00,,,0.00,0.000000,,2013-07-13 12:43:00,
2013-07-13 05:52:00,41.0,40.0,-100.00,NE,45,0.0,2.0,97,0.00,,,0.00,0.000000,,2013-07-13 12:52:00,
2013-07-13 05:53:00,37.0,36.0,-100.00,East,85,1.0,2.0,97,0.00,,,0.00,2.000000,,2013-07-13 12:53:00,
2013-07-13 06:22:00,37.0,36.0,-100.00,East,85,1.0,2.0,97,0.00,,,0.00,2.000000,,2013-07-13 13:22:00,
2013-07-13 06:32:00,37.0,36.0,-100.00,East,85,1.0,2.0,97,0.00,,,0.00,2.000000,,2013-07-13 13:32:00,
2013-07-13 06:43:00,37.0,36.0,-100.00,East,85,1.0,2.0,97,0.00,,,0.00,2.000000,,2013-07-13 13:43:00,
2013-07-13 06:53:00,43.0,42.0,-100.00,NE,54,1.0,3.0,98,0.00,,,0.00,24.000000,,2013-07-13 13:53:00,
2013-07-13 07:22:00,43.0,42.0,-100.00,NE,54,1.0,3.0,98,0.00,,,0.00,24.000000,,2013-07-13 14:22:00,
2013-07-13 07:32:00,43.0,42.0,-100.00,NE,54,1.0,3.0,98,0.00,,,0.00,24.000000,,2013-07-13 14:32:00,
2013-07-13 07:43:00,43.0,42.0,-100.00,NE,54,1.0,3.0,98,0.00,,,0.00,24.000000,,2013-07-13 14:43:00,
2013-07-13 07:53:00,43.0,42.0,-100.00,North,1,1.0,3.0,97,0.00,,,0.00,86.000000,,2013-07-13 14:53:00,
2013-07-13 08:12:00,43.0,42.0,-100.00,North,1,1.0,3.0,97,0.00,,,0.00,86.000000,,2013-07-13 15:12:00,
2013-07-13 08:22:00,43.0,42.0,-100.00,North,1,1.0,3.0,97,0.00,,,0.00,86.000000,,2013-07-13 15:22:00,
2013-07-13 08:33:00,43.0,42.0,-100.00,North,1,1.0,3.0,97,0.00,,,0.00,86.000000,,2013-07-13 15:33:00,
2013-07-13 08:43:00,43.0,42.0,-100.00,North,1,1.0,3.0,97,0.00,,,0.00,86.000000,,2013-07-13 15:43:00,
2013-07-13 09:22:00,48.0,41.0,-100.00,SSW,193,2.0,5.0,76,0.00,,,0.00,199.000000,,2013-07-13 16:22:00,
2013-07-13 09:32:00,48.0,41.0,-100.00,SSW,193,2.0,5.0,76,0.00,,,0.00,199.000000,,2013-07-13 16:32:00,
2013-07-13 09:43:00,48.0,41.0,-100.00,SSW,193,2.0,5.0,76,0.00,,,0.00,199.000000,,2013-07-13 16:43:00,
2013-07-13 10:22:00,56.0,42.0,-100.00,WSW,254,2.0,5.0,59,0.00,,,0.00,340.000000,,2013-07-13 17:22:00,
2013-07-13 10:33:00,56.0,42.0,-100.00,WSW,254,2.0,5.0,59,0.00,,,0.00,340.000000,,2013-07-13 17:33:00,
2013-07-13 10:42:00,56.0,42.0,-100.00,WSW,254,2.0,5.0,59,0.00,,,0.00,340.000000,,2013-07-13 17:42:00,
2013-07-13 10:52:00,56.0,42.0,-100.00,WSW,254,2.0,5.0,59,0.00,,,0.00,340.000000,,2013-07-13 17:52:00,
2013-07-13 11:32:00,67.0,43.0,-100.00,NNW,333,2.0,6.0,42,0.00,,,0.00,928.000000,,2013-07-13 18:32:00,
2013-07-13 11:43:00,67.0,43.0,-100.00,NNW,333,2.0,6.0,42,0.00,,,0.00,928.000000,,2013-07-13 18:43:00,
2013-07-13 11:52:00,67.0,43.0,-100.00,NNW,333,2.0,6.0,42,0.00,,,0.00,928.000000,,2013-07-13 18:52:00,
2013-07-13 12:22:00,70.0,36.0,-100.00,NNE,18,3.0,8.0,29,0.00,,,0.00,1061.000000,,2013-07-13 19:22:00,
2013-07-13 12:32:00,70.0,36.0,-100.00,NNE,18,3.0,8.0,29,0.00,,,0.00,1061.000000,,2013-07-13 19:32:00,
2013-07-13 12:44:00,70.0,36.0,-100.00,NNE,18,3.0,8.0,29,0.00,,,0.00,1061.000000,,2013-07-13 19:44:00,
2013-07-13 12:52:00,70.0,36.0,-100.00,NNE,18,3.0,8.0,29,0.00,,,0.00,1061.000000,,2013-07-13 19:52:00,
2013-07-13 13:11:00,72.0,35.0,-100.00,North,349,3.0,9.0,26,0.00,,,0.00,1138.000000,,2013-07-13 20:11:00,
2013-07-13 13:22:00,72.0,35.0,-100.00,North,349,3.0,9.0,26,0.00,,,0.00,1138.000000,,2013-07-13 20:22:00,
2013-07-13 13:33:00,72.0,35.0,-100.00,North,349,3.0,9.0,26,0.00,,,0.00,1138.000000,,2013-07-13 20:33:00,
2013-07-13 13:42:00,72.0,35.0,-100.00,North,349,3.0,9.0,26,0.00,,,0.00,1138.000000,,2013-07-13 20:42:00,
2013-07-13 13:52:00,72.0,35.0,-100.00,North,349,3.0,9.0,26,0.00,,,0.00,1138.000000,,2013-07-13 20:52:00,
2013-07-13 13:53:00,72.0,36.0,-100.00,NE,37,3.0,10.0,27,0.00,,,0.00,1162.000000,,2013-07-13 20:53:00,
2013-07-13 14:12:00,72.0,36.0,-100.00,NE,37,3.0,10.0,27,0.00,,,0.00,1162.000000,,2013-07-13 21:12:00,
2013-07-13 14:22:00,72.0,36.0,-100.00,NE,37,3.0,10.0,27,0.00,,,0.00,1162.000000,,2013-07-13 21:22:00,
2013-07-13 14:32:00,72.0,36.0,-100.00,NE,37,3.0,10.0,27,0.00,,,0.00,1162.000000,,2013-07-13 21:32:00,
2013-07-13 14:42:00,72.0,36.0,-100.00,NE,37,3.0,10.0,27,0.00,,,0.00,1162.000000,,2013-07-13 21:42:00,
2013-07-13 14:53:00,74.0,41.0,-100.00,East,92,4.0,10.0,30,0.00,,,-99.99,1125.000000,,2013-07-13 21:53:00,
2013-07-13 15:22:00,74.0,41.0,-100.00,East,92,4.0,10.0,30,0.00,,,-99.99,1125.000000,,2013-07-13 22:22:00,
2013-07-13 15:32:00,74.0,41.0,-100.00,East,92,4.0,10.0,30,0.00,,,-99.99,1125.000000,,2013-07-13 22:32:00,
2013-07-13 15:43:00,74.0,41.0,-100.00,East,92,4.0,10.0,30,0.00,,,-99.99,1125.000000,,2013-07-13 22:43:00,
2013-07-13 15:53:00,75.0,45.0,-100.00,East,85,3.0,11.0,34,0.00,,,0.00,1025.000000,,2013-07-13 22:53:00,
2013-07-13 16:11:00,75.0,45.0,-100.00,East,85,3.0,11.0,34,0.00,,,0.00,1025.000000,,2013-07-13 23:11:00,
2013-07-13 16:22:00,75.0,45.0,-100.00,East,85,3.0,11.0,34,0.00,,,0.00,1025.000000,,2013-07-13 23:22:00,
2013-07-13 16:32:00,75.0,45.0,-100.00,East,85,3.0,11.0,34,0.00,,,0.00,1025.000000,,2013-07-13 23:32:00,
2013-07-13 16:42:00,75.0,45.0,-100.00,East,85,3.0,11.0,34,0.00,,,0.00,1025.000000,,2013-07-13 23:42:00,
2013-07-13 17:21:00,75.0,46.0,-100.00,SE,144,4.0,14.0,36,0.00,,,0.00,875.000000,,2013-07-14 00:21:00,
2013-07-13 17:33:00,75.0,46.0,-100.00,SE,144,4.0,14.0,36,0.00,,,0.00,875.000000,,2013-07-14 00:33:00,
2013-07-13 17:42:00,75.0,46.0,-100.00,SE,144,4.0,14.0,36,0.00,,,0.00,875.000000,,2013-07-14 00:42:00,
2013-07-13 17:52:00,75.0,46.0,-100.00,SE,144,4.0,14.0,36,0.00,,,0.00,875.000000,,2013-07-14 00:52:00,
2013-07-13 18:11:00,73.0,45.0,-100.00,NNW,328,4.0,13.0,37,0.00,,,0.00,687.000000,,2013-07-14 01:11:00,
2013-07-13 18:22:00,73.0,45.0,-100.00,NNW,328,4.0,13.0,37,0.00,,,0.00,687.000000,,2013-07-14 01:22:00,
2013-07-13 18:32:00,73.0,45.0,-100.00,NNW,328,4.0,13.0,37,0.00,,,0.00,687.000000,,2013-07-14 01:32:00,
2013-07-13 18:43:00,73.0,45.0,-100.00,NNW,328,4.0,13.0,37,0.00,,,0.00,687.000000,,2013-07-14 01:43:00,
2013-07-13 18:52:00,73.0,45.0,-100.00,NNW,328,4.0,13.0,37,0.00,,,0.00,687.000000,,2013-07-14 01:52:00,
2013-07-13 18:53:00,70.0,46.0,-100.00,NW,322,2.0,11.0,42,0.00,,,0.00,475.000000,,2013-07-14 01:53:00,
2013-07-13 19:11:00,70.0,46.0,-100.00,NW,322,2.0,11.0,42,0.00,,,0.00,475.000000,,2013-07-14 02:11:00,
2013-07-13 19:22:00,70.0,46.0,-100.00,NW,322,2.0,11.0,42,0.00,,,0.00,475.000000,,2013-07-14 02:22:00,
2013-07-13 19:32:00,70.0,46.0,-100.00,NW,322,2.0,11.0,42,0.00,,,0.00,475.000000,,2013-07-14 02:32:00,
2013-07-13 19:43:00,70.0,46.0,-100.00,NW,322,2.0,11.0,42,0.00,,,0.00,475.000000,,2013-07-14 02:43:00,
2013-07-13 19:53:00,66.0,46.0,-100.00,SSW,194,2.0,11.0,49,0.00,,,0.00,189.000000,,2013-07-14 02:53:00,
2013-07-13 20:11:00,66.0,46.0,-100.00,SSW,194,2.0,11.0,49,0.00,,,0.00,189.000000,,2013-07-14 03:11:00,
2013-07-13 20:22:00,66.0,46.0,-100.00,SSW,194,2.0,11.0,49,0.00,,,0.00,189.000000,,2013-07-14 03:22:00,
2013-07-13 20:32:00,66.0,46.0,-100.00,SSW,194,2.0,11.0,49,0.00,,,0.00,189.000000,,2013-07-14 03:32:00,
2013-07-13 20:43:00,66.0,46.0,-100.00,SSW,194,2.0,11.0,49,0.00,,,0.00,189.000000,,2013-07-14 03:43:00,
2013-07-13 20:53:00,58.0,47.0,-100.00,ENE,59,1.0,7.0,66,0.00,,,0.00,23.000000,,2013-07-14 03:53:00,
2013-07-13 21:11:00,58.0,47.0,-100.00,ENE,59,1.0,7.0,66,0.00,,,0.00,23.000000,,2013-07-14 04:11:00,
2013-07-13 21:22:00,58.0,47.0,-100.00,ENE,59,1.0,7.0,66,0.00,,,0.00,23.000000,,2013-07-14 04:22:00,
2013-07-13 21:32:00,58.0,47.0,-100.00,ENE,59,1.0,7.0,66,0.00,,,0.00,23.000000,,2013-07-14 04:32:00,
2013-07-13 21:42:00,58.0,47.0,-100.00,ENE,59,1.0,7.0,66,0.00,,,0.00,23.000000,,2013-07-14 04:42:00,
2013-07-13 21:53:00,53.0,45.0,-100.00,East,92,1.0,3.0,75,0.00,,,0.00,1.000000,,2013-07-14 04:53:00,
2013-07-13 22:23:00,53.0,45.0,-100.00,East,92,1.0,3.0,75,0.00,,,0.00,1.000000,,2013-07-14 05:23:00,
2013-07-13 22:32:00,53.0,45.0,-100.00,East,92,1.0,3.0,75,0.00,,,0.00,1.000000,,2013-07-14 05:32:00,
2013-07-13 22:43:00,53.0,45.0,-100.00,East,92,1.0,3.0,75,0.00,,,0.00,1.000000,,2013-07-14 05:43:00,
2013-07-13 22:53:00,49.0,43.0,-100.00,ESE,107,1.0,3.0,79,0.00,,,0.00,0.000000,,2013-07-14 05:53:00,
2013-07-13 23:11:00,49.0,43.0,-100.00,ESE,107,1.0,3.0,79,0.00,,,0.00,0.000000,,2013-07-14 06:11:00,
2013-07-13 23:22:00,49.0,43.0,-100.00,ESE,107,1.0,3.0,79,0.00,,,0.00,0.000000,,2013-07-14 06:22:00,
2013-07-13 23:32:00,49.0,43.0,-100.00,ESE,107,1.0,3.0,79,0.00,,,0.00,0.000000,,2013-07-14 06:32:00,
2013-07-13 23:53:00,49.0,44.0,-100.00,SE,139,1.0,2.0,84,0.00,,,0.00,0.000000,,2013-07-14 06:53:00,